ADDS METAR Data INFO
IDs: Format: Raw Decoded Include TAF

Data at: 0750 UTC 17 Oct 2017

KAEL 170734Z AUTO 22009KT 10SM CLR 14/06 A3003 RMK AO2
KAEL 170714Z AUTO 23008G14KT 10SM CLR 14/06 A3002 RMK AO2
KAEL 170654Z AUTO 23008G14KT 10SM CLR 14/06 A3003 RMK AO2
KAEL 170634Z AUTO 23010KT 10SM CLR 15/05 A3002 RMK AO2
KAEL 170614Z AUTO 23007G16KT 10SM CLR 15/05 A3002 RMK AO2
KAEL 170553Z AUTO 22006KT 10SM CLR 14/06 A3001 RMK AO2
KAEL 170534Z AUTO 22006KT 10SM CLR 15/06 A3001 RMK AO2
KAEL 170514Z AUTO 21008G16KT 10SM CLR 15/05 A3001 RMK AO2
KAEL 170453Z AUTO 21011G15KT 10SM CLR 16/05 A3001 RMK AO2
KAEL 170434Z AUTO 20009KT 10SM CLR 16/05 A3002 RMK AO2
KAEL 170414Z AUTO 20007KT 10SM CLR 15/05 A3002 RMK AO2
KAEL 170354Z AUTO 19007KT 10SM CLR 15/05 A3003 RMK AO2
KAEL 170334Z AUTO 19008KT 10SM CLR 16/05 A3003 RMK AO2
KAEL 170314Z AUTO 20009G15KT 10SM CLR 16/04 A3003 RMK AO2
KAEL 170254Z AUTO 19009KT 10SM CLR 16/04 A3004 RMK AO2
KAEL 170233Z AUTO 20008G14KT 10SM CLR 16/04 A3004 RMK AO2
KAEL 170214Z AUTO 19008KT 10SM CLR 16/04 A3005 RMK AO2
KAEL 170154Z AUTO 19007KT 10SM CLR 16/04 A3005 RMK AO2
KAEL 170134Z AUTO 18007KT 10SM CLR 16/03 A3005 RMK AO2
KAEL 170114Z AUTO 19007KT 10SM CLR 16/03 A3006 RMK AO2
KAEL 170054Z AUTO 19007KT 10SM CLR 17/03 A3006 RMK AO2
KAEL 170034Z AUTO 19007KT 10SM CLR 17/03 A3006 RMK AO2
KAEL 170014Z AUTO 18008KT 10SM CLR 17/03 A3006 RMK AO2
KAEL 162354Z AUTO 18007KT 10SM CLR 18/02 A3006 RMK AO2
KAEL 162334Z AUTO 18006KT 10SM CLR 18/02 A3006 RMK AO2
KAEL 162313Z AUTO 18006KT 10SM CLR 19/02 A3006 RMK AO2
KAEL 162254Z AUTO 19008KT 10SM CLR 20/02 A3006 RMK AO2
KAEL 162234Z AUTO 19008KT 10SM CLR 20/02 A3007 RMK AO2
KAEL 162213Z AUTO 19009KT 10SM CLR 21/02 A3008 RMK AO2
KAEL 162154Z AUTO 20008KT 10SM CLR 21/02 A3009 RMK AO2
KAEL 162134Z AUTO 21007KT 10SM CLR 21/02 A3009 RMK AO2
KAEL 162114Z AUTO 22009G14KT 10SM CLR 21/02 A3010 RMK AO2
KAEL 162054Z AUTO 20009KT 170V240 10SM CLR 21/02 A3011 RMK AO2
KAEL 162034Z AUTO 20007KT 170V230 10SM CLR 21/02 A3011 RMK AO2
KAEL 162014Z AUTO 22010G16KT 10SM CLR 20/01 A3012 RMK AO2
KAEL 161954Z AUTO 21011G19KT 10SM CLR 19/01 A3013 RMK AO2
KAEL 161934Z AUTO 24010G16KT 200V270 10SM CLR 19/01 A3014 RMK AO2
KAEL 161914Z AUTO 23010G18KT 10SM CLR 19/01 A3016 RMK AO2
KAEL 161854Z AUTO 22007KT 180V250 10SM CLR 19/01 A3018 RMK AO2
KAEL 161834Z AUTO 22008G14KT 10SM CLR 19/01 A3019 RMK AO2
KAEL 161814Z AUTO 22006KT 10SM CLR 18/01 A3021 RMK AO2
KAEL 161754Z AUTO 24006G14KT 10SM CLR 18/01 A3021 RMK AO2
KAEL 161734Z AUTO 23007KT 10SM CLR 17/01 A3023 RMK AO2
KAEL 161714Z AUTO 22008KT 10SM CLR 17/01 A3024 RMK AO2
KAEL 161654Z AUTO 22006KT 10SM CLR 16/02 A3025 RMK AO2
KAEL 161634Z AUTO 22009KT 7SM CLR 15/02 A3026 RMK AO2
KAEL 161614Z AUTO 22004KT 4SM HZ CLR 14/04 A3026 RMK AO2
KAEL 161554Z AUTO 22006KT 10SM CLR 13/04 A3027 RMK AO2
KAEL 161534Z AUTO 21005KT 10SM CLR 12/04 A3027 RMK AO2
KAEL 161514Z AUTO 21003KT 10SM CLR 10/04 A3027 RMK AO2
KAEL 161454Z AUTO 20004KT 10SM CLR 09/04 A3027 RMK AO2
KAEL 161434Z AUTO 24003KT 10SM CLR 08/04 A3027 RMK AO2
KAEL 161413Z AUTO 21004KT 10SM CLR 07/04 A3027 RMK AO2
KAEL 161354Z AUTO 22003KT 10SM CLR 06/04 A3027 RMK AO2
KAEL 161334Z AUTO 00000KT 10SM CLR 05/03 A3026 RMK AO2
KAEL 161313Z AUTO 22003KT 10SM CLR 04/03 A3026 RMK AO2
KAEL 161254Z AUTO 00000KT 10SM CLR 03/03 A3026 RMK AO2
KAEL 161234Z AUTO 00000KT 10SM CLR 03/03 A3026 RMK AO2
KAEL 161214Z AUTO 00000KT 10SM CLR 03/03 A3026 RMK AO2
KAEL 161154Z AUTO 00000KT 10SM CLR 03/03 A3026 RMK AO2
KAEL 161134Z AUTO 00000KT 10SM CLR 03/03 A3026 RMK AO2
KAEL 161114Z AUTO 00000KT 10SM CLR 04/03 A3026 RMK AO2
KAEL 161054Z AUTO 00000KT 10SM CLR 04/03 A3026 RMK AO2
KAEL 161033Z AUTO 00000KT 10SM CLR 03/03 A3026 RMK AO2
KAEL 161014Z AUTO 21004KT 10SM CLR 03/03 A3026 RMK AO2
KAEL 160953Z AUTO 00000KT 10SM CLR 04/04 A3025 RMK AO2
KAEL 160934Z AUTO 00000KT 10SM CLR 04/04 A3025 RMK AO2
KAEL 160914Z AUTO 00000KT 10SM CLR 04/04 A3025 RMK AO2
KAEL 160853Z AUTO 00000KT 10SM CLR 04/04 A3025 RMK AO2
KAEL 160834Z AUTO 00000KT 10SM CLR 04/04 A3025 RMK AO2
KAEL 160814Z AUTO 00000KT 10SM CLR 04/04 A3025 RMK AO2
KAEL 160754Z AUTO 00000KT 10SM CLR 05/04 A3025 RMK AO2
KAEL 160734Z AUTO 00000KT 10SM CLR 05/04 A3025 RMK AO2
KAEL 160714Z AUTO 00000KT 10SM CLR 05/04 A3025 RMK AO2
KAEL 160654Z AUTO 00000KT 10SM CLR 06/05 A3025 RMK AO2
KAEL 160634Z AUTO 00000KT 10SM CLR 06/05 A3025 RMK AO2
KAEL 160614Z AUTO 00000KT 10SM CLR 06/05 A3024 RMK AO2
KAEL 160554Z AUTO 00000KT 10SM CLR 06/05 A3024 RMK AO2
KAEL 160533Z AUTO 00000KT 10SM CLR 07/04 A3024 RMK AO2
KAEL 160514Z AUTO 00000KT 10SM CLR 07/04 A3024 RMK AO2
KAEL 160454Z AUTO 28003KT 10SM SCT080 08/04 A3024 RMK AO2
KAEL 160433Z AUTO 28004KT 10SM SCT080 08/04 A3024 RMK AO2
KAEL 160414Z AUTO 28005KT 10SM CLR 09/04 A3024 RMK AO2
KAEL 160354Z AUTO 29005KT 10SM CLR 09/03 A3024 RMK AO2
KAEL 160334Z AUTO 27005KT 10SM CLR 09/03 A3023 RMK AO2
KAEL 160314Z AUTO 25006KT 10SM SCT090 10/03 A3023 RMK AO2
KAEL 160254Z AUTO 23005KT 10SM BKN090 10/04 A3022 RMK AO2
KAEL 160234Z AUTO 21003KT 10SM SCT070 OVC090 09/05 A3022 RMK AO2
KAEL 160214Z AUTO 19003KT 10SM OVC090 10/04 A3022 RMK AO2
KAEL 160154Z AUTO 00000KT 10SM SCT065 OVC090 10/05 A3022 RMK AO2
KAEL 160134Z AUTO 00000KT 10SM SCT065 OVC090 10/04 A3022 RMK AO2
KAEL 160113Z AUTO 00000KT 10SM OVC090 10/04 A3022 RMK AO2
KAEL 160054Z AUTO 00000KT 10SM OVC090 10/04 A3022 RMK AO2
KAEL 160034Z AUTO 00000KT 10SM OVC090 10/04 A3022 RMK AO2
KAEL 160013Z AUTO 20003KT 10SM OVC090 09/04 A3022 RMK AO2
KAEL 152354Z AUTO 00000KT 10SM BKN090 10/04 A3021 RMK AO2
KAEL 152334Z AUTO 00000KT 10SM SCT090 11/02 A3021 RMK AO2
KAEL 152314Z AUTO 00000KT 10SM SCT100 120 12/01 A3021 RMK AO2
KAEL 152254Z AUTO 00000KT 10SM SCT100 12/01 A3021 RMK AO2
KAEL 152234Z AUTO 27005KT 10SM CLR 13/00 A3022 RMK AO2
KAEL 152214Z AUTO 29005KT 10SM CLR 13/00 A3021 RMK AO2
KAEL 152154Z AUTO 28007KT 10SM CLR 13/M01 A3022 RMK AO2
KAEL 152134Z AUTO 28007G14KT 10SM CLR 13/00 A3022 RMK AO2
KAEL 152114Z AUTO 28007KT 10SM CLR 13/01 A3021 RMK AO2
KAEL 152054Z AUTO 27009KT 10SM CLR 13/01 A3021 RMK AO2
KAEL 152034Z AUTO 30006G14KT 10SM CLR 13/02 A3021 RMK AO2
KAEL 152014Z AUTO 29007KT 10SM SCT042 13/03 A3021 RMK AO2
KAEL 151954Z AUTO 29008G16KT 260V330 10SM SCT038 13/03 A3021 RMK AO2